createdAt,value
2024-02-07T00:01:31.721Z,6.22
2024-02-07T00:04:01.123Z,5.96
2024-02-07T00:06:28.005Z,6.17
2024-02-07T00:08:54.674Z,6.16
2024-02-07T00:11:21.290Z,6.15
2024-02-07T00:13:49.666Z,6.15
2024-02-07T00:16:16.449Z,6.15
2024-02-07T00:18:43.138Z,6.12
2024-02-07T00:21:10.193Z,6.11
2024-02-07T00:23:37.084Z,6.06
2024-02-07T00:26:03.977Z,5.27
2024-02-07T00:28:30.725Z,5.99
2024-02-07T00:30:58.785Z,6.09
2024-02-07T00:33:25.416Z,5.30
2024-02-07T00:35:52.246Z,5.91
2024-02-07T00:38:18.971Z,5.95
2024-02-07T00:40:45.742Z,6.07
2024-02-07T00:43:16.043Z,6.01
2024-02-07T00:45:42.984Z,5.98
2024-02-07T00:48:11.163Z,5.95
2024-02-07T00:50:37.889Z,5.99
2024-02-07T00:53:04.642Z,5.95
2024-02-07T00:55:31.389Z,4.70
2024-02-07T00:57:58.098Z,5.74
2024-02-07T01:00:26.478Z,5.88
2024-02-07T01:02:54.312Z,5.94
2024-02-07T01:05:22.926Z,5.94
2024-02-07T01:07:49.713Z,5.84
2024-02-07T01:10:16.980Z,5.85
2024-02-07T01:12:43.649Z,5.91
2024-02-07T01:15:10.760Z,5.92
2024-02-07T01:17:37.518Z,5.86
2024-02-07T01:20:06.784Z,5.81
2024-02-07T01:22:34.907Z,5.85
2024-02-07T01:25:01.541Z,5.84
2024-02-07T01:27:28.207Z,5.04
2024-02-07T01:29:56.474Z,5.69
2024-02-07T01:32:23.578Z,5.79
2024-02-07T01:34:50.582Z,5.73
2024-02-07T01:37:17.328Z,4.90
2024-02-07T01:39:45.349Z,5.62
2024-02-07T01:42:12.665Z,5.73
2024-02-07T01:44:39.403Z,5.30
2024-02-07T01:47:13.933Z,5.69
2024-02-07T01:49:42.604Z,5.76
2024-02-07T01:52:11.322Z,5.66
2024-02-07T01:54:40.502Z,5.68
2024-02-07T01:57:08.882Z,5.66
2024-02-07T01:59:36.840Z,5.66
2024-02-07T02:02:05.276Z,5.70
2024-02-07T02:04:33.661Z,5.72
2024-02-07T02:07:00.561Z,5.16
2024-02-07T02:09:27.570Z,5.58
2024-02-07T02:11:58.068Z,5.41
2024-02-07T02:14:26.809Z,5.62
2024-02-07T02:16:53.640Z,5.63
2024-02-07T02:19:21.850Z,5.59
2024-02-07T02:22:11.906Z,5.61
2024-02-07T02:24:50.171Z,5.59
2024-02-07T02:27:33.867Z,5.59
2024-02-07T02:30:10.523Z,5.54
2024-02-07T02:32:40.098Z,5.60
2024-02-07T02:35:09.408Z,5.57
2024-02-07T02:37:36.665Z,5.47
2024-02-07T02:40:07.127Z,5.45
2024-02-07T02:42:34.972Z,5.45
2024-02-07T02:45:03.215Z,5.45
2024-02-07T02:47:30.105Z,5.46
2024-02-07T02:49:57.021Z,5.40
2024-02-07T02:52:23.749Z,5.37
2024-02-07T02:54:51.000Z,5.45
2024-02-07T02:57:20.669Z,5.48
2024-02-07T02:59:49.490Z,5.44
2024-02-07T03:02:21.189Z,5.38
2024-02-07T03:04:51.187Z,5.36
2024-02-07T03:07:38.064Z,5.33
2024-02-07T03:10:08.698Z,5.32
2024-02-07T03:12:35.459Z,5.39
2024-02-07T03:15:02.502Z,5.32
2024-02-07T03:17:30.524Z,5.27
2024-02-07T03:19:57.282Z,5.32
2024-02-07T03:22:24.013Z,5.41
2024-02-07T03:24:56.775Z,5.34
2024-02-07T03:27:24.270Z,5.28
2024-02-07T03:29:50.996Z,3.84
2024-02-07T03:32:20.997Z,5.07
2024-02-07T03:34:49.249Z,5.08
2024-02-07T03:37:17.392Z,5.22
2024-02-07T03:39:44.157Z,5.24
2024-02-07T03:42:11.398Z,5.17
2024-02-07T03:44:41.052Z,4.11
2024-02-07T03:47:07.998Z,5.08
2024-02-07T03:49:35.392Z,5.16
2024-02-07T03:52:03.765Z,5.15
2024-02-07T03:54:30.414Z,5.25
2024-02-07T03:56:57.037Z,5.06
2024-02-07T03:59:23.653Z,5.13
2024-02-07T04:01:50.432Z,5.09
2024-02-07T04:04:21.564Z,5.09
2024-02-07T04:06:48.703Z,4.93
2024-02-07T04:09:19.633Z,5.10
2024-02-07T04:11:46.347Z,5.04
2024-02-07T04:14:12.946Z,5.08
2024-02-07T04:16:58.326Z,5.04
2024-02-07T04:19:43.895Z,4.86
2024-02-07T04:22:29.338Z,4.99
2024-02-07T04:25:16.131Z,3.30
2024-02-07T04:28:01.462Z,4.79
2024-02-07T04:30:46.909Z,3.76
2024-02-07T04:33:32.260Z,4.85
2024-02-07T04:36:17.334Z,4.90
2024-02-07T04:39:02.880Z,4.92
2024-02-07T04:41:49.533Z,4.77
2024-02-07T04:44:35.017Z,4.92
2024-02-07T04:47:20.421Z,2.94
2024-02-07T04:50:05.984Z,4.71
2024-02-07T04:52:51.225Z,4.85
2024-02-07T04:55:36.761Z,4.86
2024-02-07T04:58:23.429Z,4.86
2024-02-07T05:01:08.912Z,4.87
2024-02-07T05:03:54.171Z,4.63
2024-02-07T05:06:39.686Z,4.80
2024-02-07T05:09:25.060Z,4.81
2024-02-07T05:12:10.478Z,4.83
2024-02-07T05:14:50.729Z,4.82
2024-02-07T05:17:20.699Z,4.90
2024-02-07T05:19:47.552Z,3.38
2024-02-07T05:22:14.777Z,4.63
2024-02-07T05:24:41.624Z,4.25
2024-02-07T05:27:08.437Z,4.72
2024-02-07T05:29:35.193Z,1.79
2024-02-07T05:32:03.386Z,4.37
2024-02-07T05:34:30.216Z,4.60
2024-02-07T05:36:56.924Z,4.22
2024-02-07T05:39:24.505Z,4.57
2024-02-07T05:41:51.132Z,4.63
2024-02-07T05:44:17.843Z,4.66
2024-02-07T05:46:44.889Z,1.30
2024-02-07T05:49:17.720Z,1.92
2024-02-07T05:51:44.580Z,4.08
2024-02-07T05:54:11.261Z,4.46
2024-02-07T05:56:37.947Z,4.51
2024-02-07T05:59:04.655Z,4.55
2024-02-07T06:01:31.504Z,3.94
2024-02-07T06:03:58.271Z,4.45
2024-02-07T06:06:30.958Z,4.27
2024-02-07T06:08:58.617Z,4.13
2024-02-07T06:11:32.680Z,4.47
2024-02-07T06:14:00.388Z,1.92
2024-02-07T06:16:27.483Z,2.32
2024-02-07T06:18:54.580Z,4.19
2024-02-07T06:21:21.256Z,4.35
2024-02-07T06:23:49.379Z,4.02
2024-02-07T06:26:16.635Z,4.40
2024-02-07T06:28:45.558Z,2.43
2024-02-07T06:31:12.199Z,2.81
2024-02-07T06:33:39.410Z,4.14
2024-02-07T06:36:07.046Z,4.16
2024-02-07T06:38:33.881Z,3.66
2024-02-07T06:41:01.933Z,4.06
2024-02-07T06:43:31.492Z,1.85
2024-02-07T06:45:58.873Z,2.96
2024-02-07T06:48:25.560Z,3.38
2024-02-07T06:50:52.229Z,2.73
2024-02-07T06:53:18.852Z,3.76
2024-02-07T06:55:45.585Z,3.19
2024-02-07T06:58:13.696Z,4.03
2024-02-07T07:00:40.417Z,4.12
2024-02-07T07:03:07.077Z,4.16
2024-02-07T07:05:34.198Z,4.21
2024-02-07T07:08:00.925Z,2.82
2024-02-07T07:10:28.150Z,3.90
2024-02-07T07:12:57.714Z,4.12
2024-02-07T07:15:33.010Z,4.13
2024-02-07T07:18:01.364Z,4.21
2024-02-07T07:20:32.663Z,4.22
2024-02-07T07:23:11.540Z,4.18
2024-02-07T07:25:42.284Z,4.18
2024-02-07T07:28:08.983Z,4.22
2024-02-07T07:30:36.955Z,4.18
2024-02-07T07:33:04.370Z,4.21
2024-02-07T07:35:31.563Z,4.19
2024-02-07T07:37:59.136Z,4.05
2024-02-07T07:40:27.965Z,3.82
2024-02-07T07:42:54.652Z,2.34
2024-02-07T07:45:21.277Z,3.94
2024-02-07T07:47:49.242Z,4.08
2024-02-07T07:50:16.084Z,4.07
2024-02-07T07:52:42.744Z,4.11
2024-02-07T07:55:09.391Z,4.09
2024-02-07T07:57:36.007Z,4.13
2024-02-07T08:00:02.640Z,4.15
2024-02-07T08:02:30.898Z,4.00
2024-02-07T08:04:59.085Z,4.02
2024-02-07T08:07:25.812Z,4.10
2024-02-07T08:09:52.444Z,4.14
2024-02-07T08:12:19.073Z,4.10
2024-02-07T08:14:45.765Z,4.10
2024-02-07T08:17:17.365Z,4.94
2024-02-07T08:19:44.101Z,5.83
2024-02-07T08:22:12.131Z,5.82
2024-02-07T08:24:38.752Z,6.24
2024-02-07T08:27:06.441Z,7.37
2024-02-07T08:29:33.276Z,6.18
2024-02-07T08:32:01.810Z,4.91
2024-02-07T08:34:29.173Z,5.00
2024-02-07T08:36:56.054Z,5.66
2024-02-07T08:39:24.083Z,4.72
2024-02-07T08:41:50.761Z,4.36
2024-02-07T08:44:17.404Z,4.60
2024-02-07T08:46:45.498Z,5.16
2024-02-07T08:49:12.336Z,5.62
2024-02-07T08:51:39.131Z,6.92
2024-02-07T08:54:05.961Z,9.12
2024-02-07T08:56:33.937Z,9.06
2024-02-07T08:59:00.670Z,7.62
2024-02-07T09:01:27.447Z,5.21
2024-02-07T09:03:54.086Z,6.02
2024-02-07T09:06:21.210Z,8.52
2024-02-07T09:08:47.971Z,11.26
2024-02-07T09:11:14.597Z,9.23
2024-02-07T09:13:42.661Z,11.75
2024-02-07T09:16:09.349Z,13.31
2024-02-07T09:18:37.866Z,13.09
2024-02-07T09:21:05.330Z,10.95
2024-02-07T09:23:32.477Z,12.52
2024-02-07T09:25:59.359Z,9.67
2024-02-07T09:28:27.061Z,9.83
2024-02-07T09:30:55.158Z,10.65
2024-02-07T09:33:22.006Z,7.30
2024-02-07T09:35:49.023Z,8.32
2024-02-07T09:38:18.624Z,10.41
2024-02-07T09:40:47.505Z,11.67
2024-02-07T09:43:15.097Z,13.83
2024-02-07T09:45:44.622Z,12.87
2024-02-07T09:48:19.136Z,12.20
2024-02-07T09:50:47.341Z,14.24
2024-02-07T09:53:15.643Z,11.09
2024-02-07T09:55:43.606Z,11.54
2024-02-07T09:58:10.782Z,15.91
2024-02-07T10:00:37.437Z,13.95
2024-02-07T10:03:08.373Z,8.77
2024-02-07T10:05:37.268Z,7.11
2024-02-07T10:08:05.655Z,9.43
2024-02-07T10:10:32.778Z,9.57
2024-02-07T10:13:00.008Z,10.18
2024-02-07T10:15:26.940Z,9.49
2024-02-07T10:17:53.804Z,7.17
2024-02-07T10:20:20.562Z,11.12
2024-02-07T10:22:48.754Z,9.64
2024-02-07T10:25:17.112Z,7.21
2024-02-07T10:27:44.568Z,11.29
2024-02-07T10:30:13.546Z,10.46
2024-02-07T10:32:41.834Z,12.16
2024-02-07T10:35:12.338Z,12.21
2024-02-07T10:37:40.506Z,12.60
2024-02-07T10:40:10.591Z,14.43
2024-02-07T10:42:38.054Z,13.81
2024-02-07T10:45:05.955Z,18.24
2024-02-07T10:47:33.212Z,17.32
2024-02-07T10:50:00.460Z,18.85
2024-02-07T10:52:27.875Z,18.49
2024-02-07T10:54:54.857Z,16.13
2024-02-07T10:57:28.956Z,15.02
2024-02-07T10:59:57.277Z,15.13
2024-02-07T11:02:25.688Z,12.14
2024-02-07T11:04:53.118Z,12.44
2024-02-07T11:07:20.995Z,14.22
2024-02-07T11:09:48.311Z,12.00
2024-02-07T11:12:16.296Z,10.40
2024-02-07T11:14:48.787Z,10.08
2024-02-07T11:17:16.426Z,7.05
2024-02-07T11:19:44.095Z,9.06
2024-02-07T11:22:18.715Z,9.38
2024-02-07T11:24:46.755Z,10.89
2024-02-07T11:27:13.793Z,7.99
2024-02-07T11:29:44.001Z,8.05
2024-02-07T11:32:11.098Z,10.30
2024-02-07T11:34:38.897Z,9.56
2024-02-07T11:37:08.817Z,8.56
2024-02-07T11:39:39.542Z,9.80
2024-02-07T11:42:13.669Z,9.87
2024-02-07T11:44:53.396Z,7.61
2024-02-07T11:47:24.393Z,7.11
2024-02-07T11:49:55.317Z,10.77
2024-02-07T11:52:26.487Z,10.48
2024-02-07T11:54:53.229Z,7.49
2024-02-07T11:57:22.353Z,6.90
2024-02-07T11:59:50.861Z,6.70
2024-02-07T12:02:18.418Z,9.83
2024-02-07T12:04:46.225Z,10.27
2024-02-07T12:07:14.146Z,9.18
2024-02-07T12:09:40.976Z,8.65
2024-02-07T12:12:13.264Z,8.18
2024-02-07T12:14:40.881Z,8.84
2024-02-07T12:17:09.425Z,8.93
2024-02-07T12:19:36.986Z,8.03
2024-02-07T12:22:04.036Z,10.27
2024-02-07T12:24:32.332Z,8.96
2024-02-07T12:27:07.933Z,9.96
2024-02-07T12:29:34.813Z,8.99
2024-02-07T12:32:01.616Z,8.07
2024-02-07T12:34:29.764Z,7.56
2024-02-07T12:36:56.508Z,8.57
2024-02-07T12:39:23.159Z,10.46
2024-02-07T12:41:50.121Z,10.87
2024-02-07T12:44:17.371Z,7.53
2024-02-07T12:46:44.659Z,9.13
2024-02-07T12:49:11.538Z,8.53
2024-02-07T12:51:39.584Z,9.91
2024-02-07T12:54:06.361Z,10.92
2024-02-07T12:56:32.998Z,10.40
2024-02-07T12:58:59.840Z,11.17
2024-02-07T13:01:28.346Z,11.51
2024-02-07T13:03:55.814Z,11.56
2024-02-07T13:06:22.785Z,11.66
2024-02-07T13:08:50.928Z,11.61
2024-02-07T13:11:17.738Z,11.58
2024-02-07T13:13:44.511Z,11.57
2024-02-07T13:16:11.330Z,11.67
2024-02-07T13:18:38.106Z,11.75
2024-02-07T13:21:06.914Z,11.71
2024-02-07T13:23:34.871Z,11.63
2024-02-07T13:26:05.714Z,11.67
2024-02-07T13:28:37.070Z,11.62
2024-02-07T13:31:05.158Z,11.67
2024-02-07T13:33:31.971Z,11.60
2024-02-07T13:35:58.687Z,11.90
2024-02-07T13:38:33.598Z,11.98
2024-02-07T13:41:05.471Z,11.51
2024-02-07T13:43:32.183Z,11.56
2024-02-07T13:45:59.383Z,11.51
2024-02-07T13:48:29.578Z,10.85
2024-02-07T13:50:58.026Z,11.55
2024-02-07T13:53:24.702Z,11.19
2024-02-07T13:55:52.161Z,9.93
2024-02-07T13:58:20.409Z,9.51
2024-02-07T14:00:47.270Z,10.14
2024-02-07T14:03:14.082Z,8.50
2024-02-07T14:05:40.843Z,9.07
2024-02-07T14:08:07.782Z,10.36
2024-02-07T14:10:34.708Z,10.27
2024-02-07T14:13:01.345Z,9.41
2024-02-07T14:15:29.322Z,8.63
2024-02-07T14:17:56.254Z,9.46
2024-02-07T14:20:22.958Z,8.36
2024-02-07T14:22:49.607Z,8.13
2024-02-07T14:25:16.380Z,8.01
2024-02-07T14:27:43.083Z,9.61
2024-02-07T14:30:10.244Z,9.53
2024-02-07T14:32:38.428Z,9.31
2024-02-07T14:35:07.239Z,8.64
2024-02-07T14:37:34.869Z,8.13
2024-02-07T14:40:02.006Z,8.33
2024-02-07T14:42:28.681Z,9.73
2024-02-07T14:44:55.385Z,10.50
2024-02-07T14:47:21.980Z,9.32
2024-02-07T14:49:50.294Z,8.33
2024-02-07T14:52:18.478Z,9.55
2024-02-07T14:54:45.257Z,8.85
2024-02-07T14:57:11.932Z,9.87
2024-02-07T14:59:38.554Z,9.85
2024-02-07T15:02:05.493Z,10.58
2024-02-07T15:04:32.411Z,10.77
2024-02-07T15:07:00.439Z,10.79
2024-02-07T15:09:27.185Z,10.47
2024-02-07T15:11:56.541Z,10.34
2024-02-07T15:14:23.383Z,9.19
2024-02-07T15:16:50.086Z,8.44
2024-02-07T15:19:17.228Z,8.40
2024-02-07T15:21:44.114Z,9.27
2024-02-07T15:24:12.841Z,8.41
2024-02-07T15:26:39.566Z,8.26
2024-02-07T15:29:07.460Z,8.43
2024-02-07T15:31:34.164Z,8.21
2024-02-07T15:34:00.853Z,8.25
2024-02-07T15:36:27.586Z,8.52
2024-02-07T15:38:54.231Z,8.84
2024-02-07T15:41:22.344Z,8.33
2024-02-07T15:43:49.195Z,9.08
2024-02-07T15:46:18.029Z,9.09
2024-02-07T15:48:54.380Z,8.72
2024-02-07T15:51:27.853Z,8.30
2024-02-07T15:53:54.545Z,8.33
2024-02-07T15:56:23.114Z,8.43
2024-02-07T15:58:49.847Z,8.33
2024-02-07T16:01:16.723Z,8.41
2024-02-07T16:03:43.438Z,8.58
2024-02-07T16:06:10.080Z,8.73
2024-02-07T16:08:36.803Z,8.43
2024-02-07T16:11:05.553Z,8.31
2024-02-07T16:13:34.397Z,8.28
2024-02-07T16:16:01.124Z,8.34
2024-02-07T16:18:28.431Z,8.25
2024-02-07T16:20:56.053Z,8.48
2024-02-07T16:23:23.187Z,8.39
2024-02-07T16:25:49.958Z,8.34
2024-02-07T16:28:16.644Z,8.49
2024-02-07T16:30:44.606Z,8.50
2024-02-07T16:33:11.420Z,8.41
2024-02-07T16:35:39.046Z,8.44
2024-02-07T16:38:05.776Z,8.24
2024-02-07T16:40:34.521Z,8.30
2024-02-07T16:43:04.345Z,8.34
2024-02-07T16:45:35.994Z,8.31
2024-02-07T16:48:04.636Z,8.20
2024-02-07T16:50:31.305Z,8.27
2024-02-07T16:52:58.070Z,8.26
2024-02-07T16:55:24.848Z,8.27
2024-02-07T16:57:51.730Z,8.37
2024-02-07T17:00:19.333Z,8.23
2024-02-07T17:02:46.657Z,8.51
2024-02-07T17:05:14.770Z,8.42
2024-02-07T17:07:42.327Z,8.44
2024-02-07T17:10:09.696Z,8.25
2024-02-07T17:12:36.363Z,8.27
2024-02-07T17:15:03.104Z,8.26
2024-02-07T17:17:29.738Z,8.33
2024-02-07T17:19:56.388Z,8.13
2024-02-07T17:22:24.452Z,8.23
2024-02-07T17:24:51.562Z,8.22
2024-02-07T17:27:18.239Z,8.25
2024-02-07T17:29:49.189Z,7.90
2024-02-07T17:32:22.385Z,8.18
2024-02-07T17:34:49.938Z,8.22
2024-02-07T17:37:16.709Z,7.98
2024-02-07T17:39:44.677Z,8.18
2024-02-07T17:42:11.307Z,8.19
2024-02-07T17:44:37.904Z,8.19
2024-02-07T17:47:05.574Z,8.21
2024-02-07T17:49:32.333Z,8.06
2024-02-07T17:51:59.056Z,8.00
2024-02-07T17:54:25.705Z,8.16
2024-02-07T17:56:53.717Z,8.20
2024-02-07T17:59:20.611Z,7.96
2024-02-07T18:01:47.252Z,8.18
2024-02-07T18:04:13.979Z,8.28
2024-02-07T18:06:40.736Z,8.04
2024-02-07T18:09:08.065Z,8.16
2024-02-07T18:11:34.922Z,7.76
2024-02-07T18:14:03.016Z,7.58
2024-02-07T18:16:30.377Z,8.05
2024-02-07T18:18:57.083Z,8.15
2024-02-07T18:21:23.742Z,8.11
2024-02-07T18:23:53.906Z,7.91
2024-02-07T18:26:21.656Z,8.02
2024-02-07T18:28:48.298Z,8.06
2024-02-07T18:31:17.417Z,8.22
2024-02-07T18:33:44.107Z,8.25
2024-02-07T18:36:11.233Z,7.62
2024-02-07T18:38:37.948Z,8.06
2024-02-07T18:41:04.957Z,7.90
2024-02-07T18:43:31.726Z,7.83
2024-02-07T18:45:59.693Z,8.05
2024-02-07T18:48:27.903Z,7.86
2024-02-07T18:50:54.631Z,8.11
2024-02-07T18:53:21.959Z,8.12
2024-02-07T18:55:48.995Z,7.67
2024-02-07T18:58:16.077Z,8.10
2024-02-07T19:00:42.892Z,8.11
2024-02-07T19:03:10.910Z,7.55
2024-02-07T19:05:38.984Z,8.04
2024-02-07T19:08:06.540Z,8.12
2024-02-07T19:10:34.809Z,8.13
2024-02-07T19:13:03.304Z,8.15
2024-02-07T19:15:29.951Z,7.88
2024-02-07T19:17:56.712Z,8.07
2024-02-07T19:20:23.536Z,7.76
2024-02-07T19:22:51.625Z,7.89
2024-02-07T19:25:18.430Z,8.09
2024-02-07T19:27:45.152Z,8.12
2024-02-07T19:30:12.688Z,8.12
2024-02-07T19:32:40.740Z,8.10
2024-02-07T19:35:08.200Z,8.14
2024-02-07T19:37:35.144Z,7.76
2024-02-07T19:40:04.458Z,8.05
2024-02-07T19:42:31.092Z,8.07
2024-02-07T19:44:58.351Z,8.08
2024-02-07T19:47:25.150Z,8.12
2024-02-07T19:49:51.823Z,8.15
2024-02-07T19:52:18.656Z,8.13
2024-02-07T19:54:45.302Z,8.15
2024-02-07T19:57:13.317Z,8.18
2024-02-07T19:59:39.988Z,8.18
2024-02-07T20:02:06.967Z,8.07
2024-02-07T20:04:33.670Z,8.13
2024-02-07T20:07:00.343Z,8.13
2024-02-07T20:09:27.709Z,8.18
2024-02-07T20:11:54.455Z,7.79
2024-02-07T20:14:22.449Z,7.80
2024-02-07T20:16:49.179Z,7.89
2024-02-07T20:19:16.028Z,7.86
2024-02-07T20:21:42.737Z,7.97
2024-02-07T20:24:09.361Z,7.77
2024-02-07T20:26:36.002Z,7.93
2024-02-07T20:29:02.668Z,7.66
2024-02-07T20:31:30.703Z,7.79
2024-02-07T20:33:59.117Z,7.95
2024-02-07T20:36:27.329Z,7.73
2024-02-07T20:38:54.501Z,7.53
2024-02-07T20:41:21.501Z,7.90
2024-02-07T20:43:48.182Z,7.97
2024-02-07T20:46:14.809Z,8.02
2024-02-07T20:48:42.964Z,8.00
2024-02-07T20:51:09.703Z,7.99
2024-02-07T20:53:36.324Z,8.04
2024-02-07T20:56:03.074Z,8.04
2024-02-07T20:58:29.772Z,8.05
2024-02-07T21:00:56.525Z,8.06
2024-02-07T21:03:25.671Z,7.71
2024-02-07T21:05:55.454Z,7.96
2024-02-07T21:08:22.078Z,7.97
2024-02-07T21:10:48.812Z,8.01
2024-02-07T21:13:17.853Z,8.06
2024-02-07T21:15:45.138Z,8.02
2024-02-07T21:18:11.853Z,8.00
2024-02-07T21:20:38.528Z,7.99
2024-02-07T21:23:06.660Z,8.03
2024-02-07T21:25:33.355Z,7.99
2024-02-07T21:28:02.244Z,8.01
2024-02-07T21:30:30.672Z,8.02
2024-02-07T21:32:57.441Z,8.01
2024-02-07T21:35:24.219Z,8.04
2024-02-07T21:37:51.031Z,7.98
2024-02-07T21:40:19.292Z,7.87
2024-02-07T21:42:45.917Z,7.42
2024-02-07T21:45:13.196Z,7.90
2024-02-07T21:47:40.819Z,7.82
2024-02-07T21:50:08.254Z,7.58
2024-02-07T21:52:35.026Z,7.88
2024-02-07T21:55:03.095Z,7.94
2024-02-07T21:57:31.081Z,7.95
2024-02-07T21:59:57.710Z,7.94
2024-02-07T22:02:24.367Z,8.00
2024-02-07T22:04:51.170Z,8.04
2024-02-07T22:07:18.172Z,7.89
2024-02-07T22:09:47.511Z,7.92
2024-02-07T22:12:14.277Z,7.96
2024-02-07T22:14:42.289Z,7.93
2024-02-07T22:17:08.989Z,7.80
2024-02-07T22:19:35.877Z,7.92
2024-02-07T22:22:02.553Z,7.98
2024-02-07T22:24:29.182Z,8.05
2024-02-07T22:26:55.835Z,8.01
2024-02-07T22:29:22.468Z,7.96
2024-02-07T22:31:50.479Z,7.97
2024-02-07T22:34:17.511Z,8.02
2024-02-07T22:36:44.386Z,7.80
2024-02-07T22:39:11.854Z,6.87
2024-02-07T22:41:38.508Z,7.59
2024-02-07T22:44:05.302Z,7.86
2024-02-07T22:46:32.020Z,7.90
2024-02-07T22:49:00.159Z,7.91
2024-02-07T22:51:27.183Z,7.90
2024-02-07T22:53:53.798Z,7.99
2024-02-07T22:56:22.971Z,7.59
2024-02-07T22:58:49.876Z,7.28
2024-02-07T23:01:16.592Z,7.73
2024-02-07T23:03:43.308Z,7.89
2024-02-07T23:06:11.322Z,7.77
2024-02-07T23:08:38.194Z,7.85
2024-02-07T23:11:05.227Z,7.88
2024-02-07T23:13:31.957Z,7.91
2024-02-07T23:15:58.788Z,7.96
2024-02-07T23:18:25.597Z,7.52
2024-02-07T23:20:52.292Z,7.73
2024-02-07T23:23:20.295Z,7.86
2024-02-07T23:25:46.941Z,6.92
2024-02-07T23:28:13.592Z,7.50
2024-02-07T23:30:41.437Z,7.71
2024-02-07T23:33:10.679Z,7.83
2024-02-07T23:35:37.472Z,7.88
2024-02-07T23:38:04.650Z,7.89
2024-02-07T23:40:32.723Z,7.80
2024-02-07T23:42:59.364Z,7.44
2024-02-07T23:45:26.052Z,7.71
2024-02-07T23:47:52.785Z,7.81
2024-02-07T23:50:19.538Z,7.82
2024-02-07T23:52:46.400Z,7.42
2024-02-07T23:55:13.997Z,7.60
2024-02-07T23:57:42.164Z,7.59
